Time;durP1;ratioP1;P1;durP2;ratioP2;P2;SDS_P1;SDS_P2;PMS_P1;PMS_P2;Temp;Humidity;BMP_temperature;BMP_pressure;BME280_temperature;BME280_humidity;BME280_pressure;Samples;Min_cycle;Max_cycle;Signal;HPM_P1;HPM_P2
2022/02/21 00:01:51;;;;;;;4.25;0.70;;;;;;;8.28;68.69;96107.88;5041153;28;20056;-64
2022/02/21 00:04:17;;;;;;;0.80;0.52;;;;;;;8.23;68.89;96106.28;5033812;28;20073;-66
2022/02/21 00:06:43;;;;;;;3.08;0.90;;;;;;;8.26;68.63;96079.41;5031934;28;20130;-66
2022/02/21 00:09:11;;;;;;;0.63;0.52;;;;;;;8.30;68.44;96100.16;5034394;28;20494;-65
2022/02/21 00:11:37;;;;;;;0.90;0.50;;;;;;;8.34;68.53;96095.53;5031657;28;20041;-66
2022/02/21 00:14:03;;;;;;;1.77;0.70;;;;;;;8.30;68.27;96091.97;5038956;28;20392;-65
2022/02/21 00:16:29;;;;;;;1.85;0.63;;;;;;;8.24;69.00;96079.78;5036760;28;20148;-66
2022/02/21 00:18:55;;;;;;;1.63;0.60;;;;;;;8.38;67.33;96088.16;5033965;28;20079;-66
2022/02/21 00:21:20;;;;;;;0.95;0.55;;;;;;;8.38;67.33;96063.63;5031560;28;20115;-66
2022/02/21 00:23:46;;;;;;;3.03;0.60;;;;;;;8.42;67.60;96083.56;5042032;28;20083;-65
2022/02/21 00:26:11;;;;;;;1.83;0.90;;;;;;;8.40;67.21;96058.56;5036803;28;20049;-66
2022/02/21 00:28:36;;;;;;;2.97;0.80;;;;;;;8.41;67.45;96071.06;5038265;28;20490;-65
2022/02/21 00:31:02;;;;;;;3.63;0.70;;;;;;;8.49;65.83;96044.69;5041345;28;20128;-64
2022/02/21 00:33:28;;;;;;;1.98;0.70;;;;;;;8.53;66.29;96052.94;5039840;28;20044;-67
2022/02/21 00:35:54;;;;;;;3.70;0.80;;;;;;;8.61;65.49;96051.88;5033612;28;20410;-67
2022/02/21 00:38:19;;;;;;;2.20;0.70;;;;;;;8.59;65.03;96030.41;5036362;28;20052;-67
2022/02/21 00:40:44;;;;;;;4.93;0.85;;;;;;;8.58;65.70;96060.81;5032284;28;20043;-67
2022/02/21 00:43:10;;;;;;;3.75;0.93;;;;;;;8.56;65.35;96019.44;5029133;28;20099;-67
2022/02/21 00:45:36;;;;;;;3.45;1.90;;;;;;;8.53;66.51;96044.75;5022066;28;20045;-65
2022/02/21 00:48:01;;;;;;;2.50;0.95;;;;;;;8.49;66.68;96039.22;5040789;28;20037;-66
2022/02/21 00:50:27;;;;;;;3.30;0.82;;;;;;;8.45;67.14;96040.34;5028832;28;20037;-66
2022/02/21 00:52:52;;;;;;;1.77;1.08;;;;;;;8.44;67.51;96031.38;5022766;28;20481;-67
2022/02/21 00:55:17;;;;;;;3.15;0.80;;;;;;;8.44;67.33;96039.56;5028223;28;20419;-66
2022/02/21 00:57:43;;;;;;;2.78;0.93;;;;;;;8.41;67.27;96029.38;5035534;28;20520;-66
2022/02/21 01:00:09;;;;;;;1.63;1.00;;;;;;;8.42;68.11;96020.03;5031807;28;20053;-66
2022/02/21 01:02:35;;;;;;;5.43;1.40;;;;;;;8.44;67.62;96020.44;5042903;28;20063;-66
2022/02/21 01:05:02;;;;;;;4.97;1.23;;;;;;;8.35;68.57;95995.34;5039085;28;20144;-67
2022/02/21 01:07:28;;;;;;;2.70;0.80;;;;;;;8.33;68.56;95998.44;5031147;28;20371;-66
2022/02/21 01:09:53;;;;;;;3.67;0.77;;;;;;;8.36;68.62;95992.25;5040185;28;20060;-66
2022/02/21 01:12:19;;;;;;;3.38;0.70;;;;;;;8.38;68.00;95981.75;5029908;28;20041;-65
2022/02/21 01:14:44;;;;;;;2.60;0.80;;;;;;;8.31;69.05;95972.69;5042810;28;20491;-66
2022/02/21 01:17:10;;;;;;;2.33;0.98;;;;;;;8.38;68.36;95979.03;5037746;28;20037;-68
2022/02/21 01:19:35;;;;;;;1.25;0.70;;;;;;;8.45;68.09;95975.63;5038384;28;20049;-66
2022/02/21 01:22:03;;;;;;;3.83;0.85;;;;;;;8.49;67.33;95962.03;5035167;28;20367;-65
2022/02/21 01:24:29;;;;;;;4.00;1.00;;;;;;;8.48;67.95;95964.00;5039977;28;20496;-67
2022/02/21 01:26:55;;;;;;;2.63;0.65;;;;;;;8.53;68.05;95935.56;5043264;28;20126;-65
2022/02/21 01:29:21;;;;;;;2.13;0.80;;;;;;;8.56;67.48;95940.28;5037153;28;20075;-66
2022/02/21 01:31:47;;;;;;;1.17;0.70;;;;;;;8.50;67.95;95933.56;5034252;28;20045;-67
2022/02/21 01:34:14;;;;;;;1.80;0.75;;;;;;;8.53;67.59;95919.19;5038968;28;20041;-67
2022/02/21 01:36:42;;;;;;;1.83;0.60;;;;;;;8.51;68.19;95924.25;5043383;28;20041;-66
2022/02/21 01:39:08;;;;;;;2.28;0.73;;;;;;;8.50;68.30;95912.56;5039157;28;20048;-66
2022/02/21 01:41:34;;;;;;;1.70;0.70;;;;;;;8.40;68.29;95907.72;5038836;28;20052;-66
2022/02/21 01:44:08;;;;;;;2.70;0.50;;;;;;;8.38;68.69;95899.91;5034311;28;20498;-66
2022/02/21 01:46:34;;;;;;;1.33;0.77;;;;;;;8.37;68.83;95895.59;5042411;28;20056;-67
2022/02/21 01:49:00;;;;;;;2.17;0.70;;;;;;;8.42;68.68;95886.31;5040608;28;20036;-66
2022/02/21 01:51:26;;;;;;;1.42;1.00;;;;;;;8.38;68.82;95880.00;5034531;28;20398;-66
2022/02/21 01:53:55;;;;;;;1.45;0.70;;;;;;;8.46;68.22;95872.72;5023123;28;20045;-67
2022/02/21 01:56:20;;;;;;;2.45;0.95;;;;;;;8.52;67.47;95865.78;5018562;28;20037;-65
2022/02/21 01:58:45;;;;;;;4.32;0.88;;;;;;;8.48;68.24;95849.38;5049206;28;20055;-66
2022/02/21 02:01:11;;;;;;;2.53;0.70;;;;;;;8.49;67.47;95831.03;5019210;28;20053;-66
2022/02/21 02:03:36;;;;;;;0.90;0.63;;;;;;;8.57;66.82;95833.47;5029281;28;20615;-65
2022/02/21 02:06:02;;;;;;;2.58;0.70;;;;;;;8.60;66.53;95819.06;5033975;28;20068;-67
2022/02/21 02:08:28;;;;;;;1.17;0.70;;;;;;;8.59;67.19;95831.16;5039051;28;20525;-65
2022/02/21 02:10:53;;;;;;;2.08;0.80;;;;;;;8.51;67.47;95829.50;5041243;28;20037;-67
2022/02/21 02:13:18;;;;;;;4.05;0.60;;;;;;;8.53;67.21;95826.41;5037115;28;20398;-66
2022/02/21 02:15:44;;;;;;;1.02;0.60;;;;;;;8.77;65.99;95825.09;5043040;28;20040;-67
2022/02/21 02:18:11;;;;;;;3.63;1.55;;;;;;;8.58;67.20;95810.47;5036697;28;20535;-66
2022/02/21 02:20:36;;;;;;;1.95;0.60;;;;;;;8.61;66.29;95793.34;5032475;28;20063;-68
2022/02/21 02:23:05;;;;;;;5.55;1.02;;;;;;;8.66;66.31;95794.97;5041877;28;20397;-63
2022/02/21 02:25:31;;;;;;;4.57;1.20;;;;;;;8.64;65.55;95777.38;5041928;28;20420;-67
2022/02/21 02:27:56;;;;;;;1.00;0.63;;;;;;;8.67;65.40;95774.69;5040103;28;20303;-66
2022/02/21 02:30:22;;;;;;;3.65;1.00;;;;;;;8.65;65.95;95771.53;5029484;28;20399;-66
2022/02/21 02:32:49;;;;;;;1.52;0.80;;;;;;;8.70;65.10;95751.31;5046354;28;20047;-66
2022/02/21 02:35:14;;;;;;;3.30;1.00;;;;;;;8.75;64.91;95761.88;5029819;28;20080;-66
2022/02/21 02:37:39;;;;;;;2.20;0.70;;;;;;;8.75;64.78;95759.13;5031072;28;20469;-65
2022/02/21 02:40:06;;;;;;;1.67;0.90;;;;;;;8.73;64.80;95753.28;5016529;28;20111;-66
2022/02/21 02:42:31;;;;;;;2.78;0.90;;;;;;;8.83;64.29;95744.38;5034331;28;20076;-67
2022/02/21 02:44:57;;;;;;;2.78;0.80;;;;;;;8.85;64.68;95750.25;5036671;28;20081;-67
2022/02/21 02:47:22;;;;;;;9.80;1.58;;;;;;;8.85;65.18;95736.59;5030913;28;20130;-66
2022/02/21 02:49:47;;;;;;;4.75;1.20;;;;;;;8.77;66.18;95743.19;5036549;28;20370;-67
2022/02/21 02:52:13;;;;;;;2.58;0.95;;;;;;;8.70;66.96;95730.25;5035333;28;20194;-66
2022/02/21 02:54:38;;;;;;;2.65;1.00;;;;;;;8.62;67.73;95709.50;5027548;28;20053;-65
2022/02/21 02:57:04;;;;;;;3.50;0.80;;;;;;;8.62;68.67;95728.63;5016913;28;20099;-63
2022/02/21 02:59:29;;;;;;;1.65;0.88;;;;;;;8.51;70.31;95725.78;5018497;28;20085;-66
2022/02/21 03:01:55;;;;;;;3.53;0.90;;;;;;;8.40;71.83;95731.13;5035123;28;20045;-66
2022/02/21 03:04:21;;;;;;;3.17;1.42;;;;;;;8.30;72.07;95720.91;5016522;28;20052;-66
2022/02/21 03:06:46;;;;;;;2.88;0.93;;;;;;;8.23;72.75;95713.44;5035969;28;20037;-67
2022/02/21 03:09:12;;;;;;;4.25;1.17;;;;;;;8.22;73.41;95719.28;5028858;28;20123;-67
2022/02/21 03:11:37;;;;;;;1.98;0.70;;;;;;;8.22;73.26;95697.44;5040423;28;20033;-66
2022/02/21 03:14:03;;;;;;;3.65;0.90;;;;;;;8.19;74.13;95695.47;5039312;28;20043;-63
2022/02/21 03:16:29;;;;;;;3.15;0.85;;;;;;;8.15;73.75;95673.59;5033717;28;20100;-68
2022/02/21 03:18:54;;;;;;;5.20;1.17;;;;;;;8.12;74.52;95700.84;5036342;28;20116;-66
2022/02/21 03:21:21;;;;;;;2.28;1.00;;;;;;;8.03;75.34;95676.59;5039409;28;20135;-64
2022/02/21 03:23:47;;;;;;;5.95;1.38;;;;;;;8.01;76.16;95698.81;5028374;28;20076;-67
2022/02/21 03:26:12;;;;;;;3.60;1.00;;;;;;;7.96;76.91;95682.00;5019234;28;20371;-67
2022/02/21 03:28:38;;;;;;;3.33;0.80;;;;;;;7.93;77.45;95690.94;5026219;28;20037;-66
2022/02/21 03:31:03;;;;;;;2.15;0.70;;;;;;;7.88;78.39;95683.88;5031231;28;20067;-62
2022/02/21 03:33:29;;;;;;;3.08;1.10;;;;;;;7.87;79.23;95703.31;5032045;28;20081;-66
2022/02/21 03:35:54;;;;;;;1.35;0.80;;;;;;;7.77;80.28;95689.19;5039988;28;20032;-66
2022/02/21 03:38:20;;;;;;;1.30;0.77;;;;;;;7.72;80.51;95683.31;5034313;28;20041;-64
2022/02/21 03:40:47;;;;;;;2.83;0.93;;;;;;;7.73;80.55;95676.72;5041391;28;20454;-66
2022/02/21 03:43:13;;;;;;;2.30;0.70;;;;;;;7.69;80.85;95682.13;5020151;28;20148;-65
2022/02/21 03:45:38;;;;;;;1.55;0.70;;;;;;;7.70;80.09;95677.44;5040350;28;20486;-64
2022/02/21 03:48:04;;;;;;;1.83;0.80;;;;;;;7.70;80.83;95674.72;5029244;28;20033;-61
2022/02/21 03:50:30;;;;;;;2.15;0.80;;;;;;;7.69;80.36;95654.88;5019066;28;20037;-66
2022/02/21 03:52:55;;;;;;;3.15;0.93;;;;;;;7.69;80.57;95663.03;5021545;28;20045;-66
2022/02/21 03:55:21;;;;;;;2.72;0.70;;;;;;;7.69;80.90;95645.88;5017323;28;20044;-67
2022/02/21 03:57:47;;;;;;;1.73;0.80;;;;;;;7.60;80.46;95643.47;5024068;28;20076;-65
2022/02/21 04:00:15;;;;;;;1.60;0.70;;;;;;;7.61;80.44;95651.25;5023061;28;20118;-64
2022/02/21 04:02:43;;;;;;;6.03;2.30;;;;;;;7.60;80.62;95629.84;5032578;28;20128;-66
2022/02/21 04:05:09;;;;;;;6.72;0.85;;;;;;;7.67;79.46;95621.75;5018622;28;20656;-67
2022/02/21 04:07:35;;;;;;;1.98;1.13;;;;;;;7.58;80.52;95621.25;5025155;28;20045;-68
2022/02/21 04:10:01;;;;;;;1.17;0.73;;;;;;;7.64;79.97;95639.63;5024431;28;20199;-66
2022/02/21 04:12:27;;;;;;;1.80;0.77;;;;;;;7.54;81.19;95626.66;5037991;28;20041;-68
2022/02/21 04:14:53;;;;;;;3.05;0.70;;;;;;;7.52;82.40;95609.13;5044374;28;20037;-65
2022/02/21 04:17:18;;;;;;;1.92;0.90;;;;;;;7.56;81.87;95624.38;5032707;28;20486;-66
2022/02/21 04:19:46;;;;;;;1.88;0.70;;;;;;;7.52;82.93;95620.81;5044044;28;20052;-71
2022/02/21 04:22:12;;;;;;;2.88;0.90;;;;;;;7.50;83.81;95633.25;5039308;28;20503;-65
2022/02/21 04:24:38;;;;;;;1.08;0.77;;;;;;;7.51;83.05;95613.00;5043091;28;20051;-64
2022/02/21 04:27:05;;;;;;;0.73;0.60;;;;;;;7.46;83.60;95608.69;5039481;28;20044;-63
2022/02/21 04:29:31;;;;;;;3.05;0.90;;;;;;;7.45;84.33;95615.28;5043910;28;20044;-66
2022/02/21 04:31:56;;;;;;;4.10;0.80;;;;;;;7.49;82.49;95604.41;5045605;28;20037;-66
2022/02/21 04:34:21;;;;;;;1.13;0.60;;;;;;;7.59;81.32;95609.97;5038368;28;20572;-66
2022/02/21 04:36:47;;;;;;;2.22;0.68;;;;;;;7.58;82.05;95613.88;5043425;28;20048;-67
2022/02/21 04:39:12;;;;;;;1.60;1.00;;;;;;;7.61;80.67;95595.97;5038996;28;20179;-68
2022/02/21 04:41:38;;;;;;;4.13;0.80;;;;;;;7.60;80.97;95587.03;5042573;28;20052;-65
2022/02/21 04:44:04;;;;;;;1.55;0.70;;;;;;;7.58;81.58;95591.28;5036129;28;20044;-64
2022/02/21 04:46:30;;;;;;;2.38;0.80;;;;;;;7.53;81.16;95591.63;5042747;28;20033;-66
2022/02/21 04:48:55;;;;;;;2.92;0.90;;;;;;;7.52;82.27;95582.66;5041954;28;20059;-66
2022/02/21 04:51:21;;;;;;;1.63;0.82;;;;;;;7.54;81.13;95574.09;5030576;28;20048;-67
2022/02/21 04:53:46;;;;;;;2.60;0.70;;;;;;;7.61;80.17;95566.00;5035552;28;20045;-67
2022/02/21 04:56:11;;;;;;;1.88;0.80;;;;;;;7.59;79.91;95554.69;5037577;28;20068;-69
2022/02/21 04:58:37;;;;;;;3.17;1.60;;;;;;;7.61;79.15;95561.34;5038160;28;20485;-65
2022/02/21 05:01:03;;;;;;;4.25;1.15;;;;;;;7.63;80.21;95552.78;5040765;28;20037;-63
2022/02/21 05:03:28;;;;;;;1.92;0.52;;;;;;;7.64;79.72;95541.50;5042989;28;20577;-68
2022/02/21 05:05:54;;;;;;;3.70;0.90;;;;;;;7.66;79.75;95541.91;5039580;28;20405;-65
2022/02/21 05:08:19;;;;;;;2.70;0.93;;;;;;;7.72;79.41;95539.63;5030091;28;20422;-64
2022/02/21 05:10:44;;;;;;;1.90;0.63;;;;;;;7.76;80.56;95536.94;5033852;28;20571;-66
2022/02/21 05:13:10;;;;;;;2.00;0.60;;;;;;;7.80;80.79;95535.81;5033152;28;20049;-66
2022/02/21 05:15:35;;;;;;;2.25;0.70;;;;;;;7.63;83.10;95526.34;5037067;28;20529;-65
2022/02/21 05:18:01;;;;;;;1.00;0.70;;;;;;;7.62;83.01;95524.75;5041126;28;20041;-66
2022/02/21 05:20:26;;;;;;;1.95;0.70;;;;;;;7.49;84.27;95550.72;5025434;28;20053;-66
2022/02/21 05:22:51;;;;;;;7.05;0.70;;;;;;;7.40;85.66;95531.97;5037832;28;20071;-64
2022/02/21 05:25:17;;;;;;;1.13;0.60;;;;;;;7.32;86.54;95530.31;5037926;28;20594;-67
2022/02/21 05:27:43;;;;;;;2.97;0.70;;;;;;;7.19;89.56;95543.41;5034161;28;20095;-66
2022/02/21 05:30:09;;;;;;;3.65;1.10;;;;;;;7.13;90.93;95534.03;5030222;28;20045;-65
2022/02/21 05:32:35;;;;;;;0.95;0.60;;;;;;;7.03;93.09;95551.78;5042860;28;20144;-66
2022/02/21 05:35:02;;;;;;;1.75;0.70;;;;;;;6.98;96.14;95554.06;5034153;28;20136;-65
2022/02/21 05:37:28;;;;;;;3.30;0.80;;;;;;;6.80;98.63;95557.34;5029045;28;20045;-67
2022/02/21 05:39:53;;;;;;;2.88;0.80;;;;;;;6.66;100.00;95547.06;5041966;28;20045;-66
2022/02/21 05:42:19;;;;;;;1.48;0.90;;;;;;;6.60;100.00;95529.50;5028126;28;20044;-66
2022/02/21 05:44:44;;;;;;;2.55;0.85;;;;;;;6.56;100.00;95528.66;5034109;28;20079;-66
2022/02/21 05:47:10;;;;;;;3.30;1.15;;;;;;;6.40;100.00;95528.84;5037804;28;20405;-66
2022/02/21 05:49:36;;;;;;;4.35;0.75;;;;;;;6.32;100.00;95543.50;5036013;28;20408;-66
2022/02/21 05:52:02;;;;;;;2.40;1.35;;;;;;;6.29;100.00;95574.91;5034306;28;20044;-64
2022/02/21 05:54:27;;;;;;;3.28;1.02;;;;;;;6.33;100.00;95615.75;5036829;28;20082;-65
2022/02/21 05:56:53;;;;;;;1.40;0.85;;;;;;;6.15;100.00;95690.84;5041115;28;20343;-67
2022/02/21 05:59:18;;;;;;;0.40;0.40;;;;;;;4.53;98.78;95753.41;5032100;28;20144;-66
2022/02/21 06:01:44;;;;;;;1.77;1.10;;;;;;;3.24;100.00;95794.09;5040759;28;20083;-64
2022/02/21 06:04:10;;;;;;;1.95;0.70;;;;;;;2.09;100.00;95808.56;5026114;28;20132;-63
2022/02/21 06:06:35;;;;;;;2.28;0.60;;;;;;;1.36;100.00;95812.50;5020802;28;20182;-65
2022/02/21 06:09:03;;;;;;;0.70;0.57;;;;;;;0.91;100.00;95818.50;5026329;28;20032;-66
2022/02/21 06:11:28;;;;;;;2.88;0.70;;;;;;;0.91;100.00;95807.72;5021170;28;20045;-65
2022/02/21 06:13:54;;;;;;;1.50;0.90;;;;;;;0.83;100.00;95819.31;5031256;28;20041;-64
2022/02/21 06:16:20;;;;;;;1.15;0.90;;;;;;;0.80;100.00;95810.00;5036017;28;20048;-66
2022/02/21 06:18:46;;;;;;;3.15;1.50;;;;;;;0.78;100.00;95833.78;5034634;28;20063;-64
2022/02/21 06:21:11;;;;;;;2.13;1.10;;;;;;;0.83;100.00;95857.88;5035365;28;20043;-64
2022/02/21 06:23:36;;;;;;;1.58;0.93;;;;;;;0.83;100.00;95892.09;5040946;28;20045;-66
2022/02/21 06:26:03;;;;;;;3.83;0.90;;;;;;;0.84;100.00;95904.50;5040037;28;20045;-64
2022/02/21 06:28:29;;;;;;;1.38;1.00;;;;;;;0.91;100.00;95899.38;5029135;28;20068;-66
2022/02/21 06:30:54;;;;;;;2.15;1.00;;;;;;;0.92;100.00;95895.59;5036883;28;20083;-65
2022/02/21 06:33:20;;;;;;;0.75;0.73;;;;;;;0.89;100.00;95901.63;5033077;28;20065;-66
2022/02/21 06:35:45;;;;;;;3.15;1.10;;;;;;;0.97;100.00;95908.09;5026213;28;20044;-67
2022/02/21 06:38:11;;;;;;;1.35;0.98;;;;;;;0.80;100.00;95915.13;5023441;28;20115;-67
2022/02/21 06:40:37;;;;;;;3.65;1.05;;;;;;;1.00;100.00;95927.09;5031609;28;20484;-66
2022/02/21 06:43:03;;;;;;;1.00;0.98;;;;;;;1.11;100.00;95939.09;5034462;28;20079;-65
2022/02/21 06:45:29;;;;;;;0.85;0.80;;;;;;;1.14;100.00;95934.97;5030858;28;20037;-65
2022/02/21 06:47:56;;;;;;;4.95;1.17;;;;;;;1.20;100.00;95925.59;5038417;28;20536;-65
2022/02/21 06:50:23;;;;;;;2.10;1.05;;;;;;;1.21;100.00;95931.78;5025701;28;20033;-67
2022/02/21 06:52:48;;;;;;;1.35;1.02;;;;;;;1.21;100.00;95921.00;5036958;28;20045;-66
2022/02/21 06:55:14;;;;;;;2.85;1.05;;;;;;;1.39;100.00;95917.09;5049069;28;20379;-65
2022/02/21 06:57:43;;;;;;;1.48;0.90;;;;;;;1.38;100.00;95915.50;5029097;28;20049;-65
2022/02/21 07:00:09;;;;;;;;;;;;;;;1.31;100.00;95897.13;5016443;28;20054;-65
2022/02/21 07:02:34;;;;;;;2.63;1.63;;;;;;;1.36;100.00;95889.97;5028539;28;19916;-66
2022/02/21 07:05:00;;;;;;;1.92;1.10;;;;;;;1.40;100.00;95880.09;5033635;28;20122;-65
2022/02/21 07:07:25;;;;;;;3.28;1.10;;;;;;;1.37;100.00;95892.34;5027870;28;20067;-64
2022/02/21 07:09:51;;;;;;;2.85;1.10;;;;;;;1.43;100.00;95909.91;5039905;28;20144;-65
2022/02/21 07:12:17;;;;;;;1.98;1.17;;;;;;;1.51;100.00;95941.47;5033456;28;20037;-64
2022/02/21 07:14:43;;;;;;;1.63;1.25;;;;;;;1.59;100.00;95953.31;5034851;28;20099;-65
2022/02/21 07:17:08;;;;;;;2.58;1.25;;;;;;;1.60;100.00;95973.78;5031533;28;20457;-64
2022/02/21 07:19:34;;;;;;;4.40;1.73;;;;;;;1.61;100.00;95986.19;5034692;28;20086;-64
2022/02/21 07:21:59;;;;;;;3.55;1.13;;;;;;;1.74;100.00;95988.97;5038324;28;20056;-65
2022/02/21 07:24:25;;;;;;;3.90;1.20;;;;;;;1.70;100.00;96015.81;5034031;28;20083;-65
2022/02/21 07:26:50;;;;;;;4.88;1.35;;;;;;;1.66;100.00;96013.00;5039243;28;20068;-64
2022/02/21 07:29:16;;;;;;;3.80;1.40;;;;;;;1.72;100.00;96014.38;5032610;28;20128;-65
2022/02/21 07:31:42;;;;;;;4.25;2.00;;;;;;;1.85;100.00;96011.75;5038969;28;20547;-65
2022/02/21 07:34:07;;;;;;;5.32;1.60;;;;;;;1.86;100.00;96026.88;5032617;28;20048;-65
2022/02/21 07:36:34;;;;;;;2.97;1.10;;;;;;;1.94;100.00;96049.53;5035432;28;20048;-65
2022/02/21 07:39:01;;;;;;;5.10;1.40;;;;;;;1.99;100.00;96063.63;5033263;28;20137;-66
2022/02/21 07:41:27;;;;;;;2.35;0.88;;;;;;;1.97;100.00;96057.00;5032782;28;20052;-65
2022/02/21 07:43:52;;;;;;;4.63;0.95;;;;;;;2.09;100.00;96046.28;5038721;28;20037;-66
2022/02/21 07:46:18;;;;;;;2.67;1.10;;;;;;;2.36;100.00;96077.41;5026104;28;20083;-66
2022/02/21 07:48:43;;;;;;;3.65;1.60;;;;;;;2.39;100.00;96127.28;5036159;28;20087;-66
2022/02/21 07:51:08;;;;;;;4.75;1.00;;;;;;;2.48;100.00;96150.47;5027623;28;20073;-67
2022/02/21 07:53:34;;;;;;;3.03;1.15;;;;;;;2.39;100.00;96165.91;5039417;28;20060;-68
2022/02/21 07:55:59;;;;;;;2.20;1.15;;;;;;;2.44;100.00;96173.84;5040780;28;20049;-66
2022/02/21 07:58:25;;;;;;;2.72;1.02;;;;;;;2.36;100.00;96161.19;5029540;28;20045;-67
2022/02/21 08:00:50;;;;;;;4.47;0.95;;;;;;;2.43;100.00;96134.44;5031768;28;20178;-66
2022/02/21 08:03:16;;;;;;;2.92;0.98;;;;;;;2.48;100.00;96161.28;5046663;28;20097;-63
2022/02/21 08:05:41;;;;;;;1.63;1.00;;;;;;;2.41;100.00;96171.81;5042204;28;20099;-66
2022/02/21 08:08:07;;;;;;;6.68;0.90;;;;;;;2.41;100.00;96173.69;5037319;28;20516;-64
2022/02/21 08:10:33;;;;;;;3.03;0.98;;;;;;;2.56;100.00;96186.66;5036864;28;20052;-65
2022/02/21 08:12:59;;;;;;;2.08;1.15;;;;;;;2.61;100.00;96185.66;5036666;28;20055;-66
2022/02/21 08:15:24;;;;;;;2.30;1.27;;;;;;;2.66;100.00;96172.75;5027546;28;20041;-65
2022/02/21 08:17:50;;;;;;;5.95;1.20;;;;;;;2.48;100.00;96182.09;5040727;28;20137;-66
2022/02/21 08:20:21;;;;;;;24.52;12.25;;;;;;;2.56;100.00;96181.25;5034947;28;20048;-66
2022/02/21 08:22:47;;;;;;;6.50;3.92;;;;;;;2.53;100.00;96200.06;5039701;28;20049;-65
2022/02/21 08:25:13;;;;;;;11.48;6.28;;;;;;;2.54;100.00;96190.81;5030582;28;20353;-64
2022/02/21 08:27:41;;;;;;;5.65;3.65;;;;;;;2.56;100.00;96202.91;5034102;28;20523;-65
2022/02/21 08:30:13;;;;;;;15.77;9.32;;;;;;;2.59;100.00;96202.25;5026362;28;20038;-65
2022/02/21 08:32:39;;;;;;;11.60;6.18;;;;;;;2.64;100.00;96203.94;5030053;28;20146;-65
2022/02/21 08:35:05;;;;;;;9.77;3.92;;;;;;;2.70;100.00;96207.25;5028267;28;20069;-63
2022/02/21 08:37:31;;;;;;;8.10;1.30;;;;;;;2.79;100.00;96187.16;5021150;28;20045;-66
2022/02/21 08:39:56;;;;;;;8.88;2.72;;;;;;;2.84;100.00;96197.78;5037453;28;20049;-66
2022/02/21 08:42:22;;;;;;;4.10;1.90;;;;;;;2.80;100.00;96210.38;5033474;28;20814;-66
2022/02/21 08:44:47;;;;;;;7.28;2.28;;;;;;;2.79;100.00;96216.91;5040871;28;20040;-66
2022/02/21 08:47:15;;;;;;;7.78;1.48;;;;;;;2.99;100.00;96228.06;5040006;28;20044;-66
2022/02/21 08:49:41;;;;;;;16.70;4.18;;;;;;;2.81;100.00;96233.59;5045097;28;20379;-66
2022/02/21 08:52:06;;;;;;;7.07;1.90;;;;;;;2.93;100.00;96242.91;5037902;28;20079;-64
2022/02/21 08:54:35;;;;;;;12.50;2.40;;;;;;;2.99;100.00;96233.47;5043209;28;20045;-64
2022/02/21 08:57:04;;;;;;;9.27;3.42;;;;;;;2.98;100.00;96237.31;5042705;28;20437;-66
2022/02/21 08:59:30;;;;;;;7.18;1.40;;;;;;;3.14;100.00;96230.19;5044307;28;20068;-64
2022/02/21 09:01:55;;;;;;;4.57;1.40;;;;;;;3.01;100.00;96240.16;5045071;28;20064;-65
2022/02/21 09:04:21;;;;;;;5.88;1.40;;;;;;;3.05;100.00;96238.38;5033759;28;20782;-65
2022/02/21 09:06:46;;;;;;;5.80;1.27;;;;;;;3.27;100.00;96250.00;5036987;28;20037;-65
2022/02/21 09:09:12;;;;;;;6.25;1.23;;;;;;;3.59;96.33;96224.09;5026742;28;20037;-66
2022/02/21 09:11:37;;;;;;;6.28;1.50;;;;;;;3.71;97.01;96227.97;5037240;28;20041;-67
2022/02/21 09:14:03;;;;;;;4.68;1.05;;;;;;;3.97;95.00;96222.28;5025666;28;20470;-63
2022/02/21 09:16:29;;;;;;;7.40;1.77;;;;;;;4.30;95.89;96218.72;5034271;28;20076;-66
2022/02/21 09:18:54;;;;;;;3.67;1.10;;;;;;;4.63;90.13;96225.97;5028219;28;20045;-66
2022/02/21 09:21:20;;;;;;;6.03;1.27;;;;;;;4.43;90.09;96217.63;5025355;28;20048;-66
2022/02/21 09:23:46;;;;;;;6.43;1.45;;;;;;;4.20;91.58;96223.47;5038147;28;20046;-66
2022/02/21 09:26:11;;;;;;;4.07;1.15;;;;;;;4.07;90.62;96223.78;5036243;28;20044;-65
2022/02/21 09:28:37;;;;;;;2.95;1.30;;;;;;;4.09;90.04;96235.88;5033734;28;20045;-65
2022/02/21 09:31:02;;;;;;;1.58;0.77;;;;;;;4.12;86.04;96226.28;5037714;28;20040;-63
2022/02/21 09:33:27;;;;;;;1.90;0.90;;;;;;;4.04;86.40;96222.53;5046682;28;20049;-66
2022/02/21 09:35:53;;;;;;;3.90;1.48;;;;;;;3.85;85.79;96195.94;5039328;28;20098;-67
2022/02/21 09:38:19;;;;;;;8.27;1.40;;;;;;;3.93;83.56;96200.50;5027797;28;20364;-66
2022/02/21 09:40:48;;;;;;;7.75;1.65;;;;;;;3.99;82.47;96196.44;5036794;28;20044;-66
2022/02/21 09:43:14;;;;;;;17.23;3.13;;;;;;;3.97;84.76;96192.50;5022804;28;20041;-65
2022/02/21 09:45:42;;;;;;;9.20;1.63;;;;;;;4.02;85.13;96192.28;5037757;28;20587;-64
2022/02/21 09:48:08;;;;;;;9.95;1.50;;;;;;;4.07;84.01;96183.94;5036271;28;20093;-64
2022/02/21 09:50:35;;;;;;;5.38;1.50;;;;;;;4.07;85.38;96186.66;5039529;28;20052;-65
2022/02/21 09:53:04;;;;;;;7.95;1.60;;;;;;;3.94;85.95;96187.72;5041670;28;20048;-65
2022/02/21 09:55:31;;;;;;;15.48;1.90;;;;;;;3.83;87.47;96190.91;5036998;28;20053;-65
2022/02/21 09:57:57;;;;;;;11.35;2.10;;;;;;;3.85;87.56;96193.25;5038998;28;20036;-64
2022/02/21 10:00:23;;;;;;;11.68;2.15;;;;;;;3.92;86.95;96184.56;5031187;28;20807;-64
2022/02/21 10:02:50;;;;;;;7.43;2.20;;;;;;;3.91;87.53;96189.22;5033474;28;20140;-65
2022/02/21 10:05:21;;;;;;;6.40;1.98;;;;;;;4.12;85.52;96197.25;5032626;28;20041;-64
2022/02/21 10:07:47;;;;;;;7.35;2.22;;;;;;;4.17;85.64;96179.97;5031650;28;20406;-65
2022/02/21 10:10:16;;;;;;;11.30;1.85;;;;;;;4.04;86.56;96179.19;5030494;28;20041;-66
2022/02/21 10:12:55;;;;;;;7.00;1.60;;;;;;;4.11;86.05;96179.41;5035717;28;20048;-65
2022/02/21 10:15:30;;;;;;;8.85;1.70;;;;;;;4.35;83.85;96172.41;5034871;28;20047;-63
2022/02/21 10:18:28;;;;;;;11.55;2.75;;;;;;;4.46;82.49;96159.19;5035403;28;20139;-66
2022/02/21 10:20:57;;;;;;;8.05;1.65;;;;;;;4.46;81.15;96165.41;4996263;28;20663;-65
2022/02/21 10:23:23;;;;;;;5.13;1.13;;;;;;;4.58;80.15;96161.91;5032569;28;20725;-65
2022/02/21 10:25:57;;;;;;;7.43;2.17;;;;;;;4.46;81.18;96168.13;5038523;28;20032;-64
2022/02/21 10:28:28;;;;;;;11.38;1.92;;;;;;;4.39;80.65;96162.47;5026749;28;20898;-66
2022/02/21 10:31:13;;;;;;;7.28;1.75;;;;;;;4.70;80.64;96167.31;5034285;28;20187;-63
2022/02/21 10:33:45;;;;;;;5.25;1.48;;;;;;;4.44;80.51;96151.41;5038070;28;20067;-65
2022/02/21 10:36:41;;;;;;;5.65;1.52;;;;;;;4.66;79.95;96146.63;5036749;28;20065;-65
2022/02/21 10:39:09;;;;;;;5.72;1.48;;;;;;;4.76;79.68;96144.25;5049768;28;20045;-64
2022/02/21 10:41:52;;;;;;;5.25;1.42;;;;;;;4.64;80.58;96146.19;5028102;28;20071;-66
2022/02/21 10:44:24;;;;;;;5.10;1.42;;;;;;;4.32;83.13;96137.84;5027188;28;20098;-67
2022/02/21 10:47:13;;;;;;;10.98;1.48;;;;;;;4.18;82.95;96151.75;5035268;28;20036;-64
2022/02/21 10:49:59;;;;;;;8.07;1.42;;;;;;;4.26;86.55;96150.84;5040026;28;20048;-66
2022/02/21 10:52:30;;;;;;;4.72;1.00;;;;;;;4.29;83.46;96154.81;5032246;28;20558;-66
2022/02/21 10:54:57;;;;;;;5.78;1.77;;;;;;;4.27;86.76;96149.72;5023423;28;20052;-64
2022/02/21 10:57:28;;;;;;;7.55;1.75;;;;;;;4.37;85.91;96148.47;5017114;28;20283;-65
2022/02/21 10:59:54;;;;;;;3.88;1.60;;;;;;;4.28;86.68;96161.34;5024650;28;20071;-66
2022/02/21 11:02:21;;;;;;;4.47;1.75;;;;;;;3.97;90.16;96170.81;5019692;28;20052;-63
2022/02/21 11:04:47;;;;;;;7.80;2.25;;;;;;;4.01;90.52;96169.00;5030780;28;20052;-66
2022/02/21 11:07:14;;;;;;;6.40;1.40;;;;;;;3.98;92.43;96153.41;5025786;28;20406;-66
2022/02/21 11:09:41;;;;;;;5.53;1.40;;;;;;;4.10;94.90;96166.19;5032197;28;20056;-66
2022/02/21 11:12:07;;;;;;;6.38;1.50;;;;;;;4.18;96.16;96159.88;5026514;28;20068;-65
2022/02/21 11:14:38;;;;;;;7.10;1.60;;;;;;;3.88;97.90;96173.63;5028073;28;20395;-66
2022/02/21 11:17:05;;;;;;;5.47;1.27;;;;;;;3.77;100.00;96165.13;5026310;28;20033;-65
2022/02/21 11:19:31;;;;;;;8.38;2.33;;;;;;;3.99;100.00;96155.00;5032299;28;20052;-66
2022/02/21 11:21:57;;;;;;;6.55;1.38;;;;;;;4.65;99.21;96151.28;5031576;28;20390;-65
2022/02/21 11:24:29;;;;;;;5.55;1.75;;;;;;;4.93;97.18;96150.53;5025259;28;20439;-64
2022/02/21 11:27:01;;;;;;;6.13;1.83;;;;;;;4.90;97.33;96135.75;5033222;28;20509;-65
2022/02/21 11:30:17;;;;;;;7.85;1.85;;;;;;;5.20;98.58;96129.19;5027139;28;20503;-66
2022/02/21 11:33:06;;;;;;;6.25;1.58;;;;;;;5.45;94.90;96122.50;5023041;28;20060;-66
2022/02/21 11:35:33;;;;;;;6.97;1.38;;;;;;;5.19;93.07;96128.41;5030019;28;20417;-64
2022/02/21 11:38:22;;;;;;;12.05;1.50;;;;;;;5.08;94.77;96116.47;5031257;28;20148;-65